sensor_id;sensor_type;location;lat;lon;timestamp;P1;durP1;ratioP1;P2;durP2;ratioP2
31638;SDS011;18248;51.522;7.020;2022-09-09T00:02:40;4.70;;;0.70;;
31638;SDS011;18248;51.522;7.020;2022-09-09T00:05:51;2.67;;;0.70;;
31638;SDS011;18248;51.522;7.020;2022-09-09T00:09:18;2.17;;;0.80;;
31638;SDS011;18248;51.522;7.020;2022-09-09T00:12:22;3.05;;;0.98;;
31638;SDS011;18248;51.522;7.020;2022-09-09T00:15:30;4.13;;;0.98;;
31638;SDS011;18248;51.522;7.020;2022-09-09T00:25:14;6.90;;;1.00;;
31638;SDS011;18248;51.522;7.020;2022-09-09T00:28:20;4.55;;;0.73;;
31638;SDS011;18248;51.522;7.020;2022-09-09T00:31:28;3.72;;;1.08;;
31638;SDS011;18248;51.522;7.020;2022-09-09T00:34:28;2.70;;;0.77;;
31638;SDS011;18248;51.522;7.020;2022-09-09T00:37:29;4.32;;;1.00;;
31638;SDS011;18248;51.522;7.020;2022-09-09T00:40:34;4.20;;;0.80;;
31638;SDS011;18248;51.522;7.020;2022-09-09T00:43:38;3.03;;;0.82;;
31638;SDS011;18248;51.522;7.020;2022-09-09T00:53:35;4.80;;;0.93;;
31638;SDS011;18248;51.522;7.020;2022-09-09T01:03:21;5.13;;;0.93;;
31638;SDS011;18248;51.522;7.020;2022-09-09T01:06:35;4.97;;;0.82;;
31638;SDS011;18248;51.522;7.020;2022-09-09T01:09:38;3.70;;;0.75;;
31638;SDS011;18248;51.522;7.020;2022-09-09T01:12:49;4.22;;;0.88;;
31638;SDS011;18248;51.522;7.020;2022-09-09T01:15:51;4.25;;;0.90;;
31638;SDS011;18248;51.522;7.020;2022-09-09T01:18:51;0.75;;;0.57;;
31638;SDS011;18248;51.522;7.020;2022-09-09T01:22:03;3.35;;;1.17;;
31638;SDS011;18248;51.522;7.020;2022-09-09T01:28:26;2.67;;;0.82;;
31638;SDS011;18248;51.522;7.020;2022-09-09T01:31:30;4.53;;;0.80;;
31638;SDS011;18248;51.522;7.020;2022-09-09T01:34:35;4.72;;;1.02;;
31638;SDS011;18248;51.522;7.020;2022-09-09T01:37:36;3.90;;;0.87;;
31638;SDS011;18248;51.522;7.020;2022-09-09T01:40:35;3.08;;;0.85;;
31638;SDS011;18248;51.522;7.020;2022-09-09T01:43:34;2.60;;;0.93;;
31638;SDS011;18248;51.522;7.020;2022-09-09T01:46:33;10.57;;;1.50;;
31638;SDS011;18248;51.522;7.020;2022-09-09T01:49:32;9.82;;;1.02;;
31638;SDS011;18248;51.522;7.020;2022-09-09T01:52:39;2.15;;;0.80;;
31638;SDS011;18248;51.522;7.020;2022-09-09T01:55:40;3.13;;;0.90;;
31638;SDS011;18248;51.522;7.020;2022-09-09T01:58:44;4.22;;;1.10;;
31638;SDS011;18248;51.522;7.020;2022-09-09T02:02:10;7.15;;;1.10;;
31638;SDS011;18248;51.522;7.020;2022-09-09T02:05:26;5.32;;;1.20;;
31638;SDS011;18248;51.522;7.020;2022-09-09T02:11:41;5.68;;;1.52;;
31638;SDS011;18248;51.522;7.020;2022-09-09T02:14:48;3.53;;;1.05;;
31638;SDS011;18248;51.522;7.020;2022-09-09T02:17:52;6.65;;;1.35;;
31638;SDS011;18248;51.522;7.020;2022-09-09T02:20:56;5.15;;;1.25;;
31638;SDS011;18248;51.522;7.020;2022-09-09T02:23:58;5.22;;;1.35;;
31638;SDS011;18248;51.522;7.020;2022-09-09T02:27:04;5.10;;;1.85;;
31638;SDS011;18248;51.522;7.020;2022-09-09T02:30:06;4.22;;;1.30;;
31638;SDS011;18248;51.522;7.020;2022-09-09T02:33:06;7.82;;;1.42;;
31638;SDS011;18248;51.522;7.020;2022-09-09T02:36:08;6.68;;;1.25;;
31638;SDS011;18248;51.522;7.020;2022-09-09T02:39:09;4.50;;;1.33;;
31638;SDS011;18248;51.522;7.020;2022-09-09T02:42:08;5.97;;;1.38;;
31638;SDS011;18248;51.522;7.020;2022-09-09T02:45:07;5.32;;;1.13;;
31638;SDS011;18248;51.522;7.020;2022-09-09T02:48:17;4.03;;;1.40;;
31638;SDS011;18248;51.522;7.020;2022-09-09T02:51:26;5.35;;;1.15;;
31638;SDS011;18248;51.522;7.020;2022-09-09T02:54:43;5.07;;;1.40;;
31638;SDS011;18248;51.522;7.020;2022-09-09T02:57:41;4.43;;;1.17;;
31638;SDS011;18248;51.522;7.020;2022-09-09T03:00:45;4.18;;;1.15;;
31638;SDS011;18248;51.522;7.020;2022-09-09T03:03:45;4.05;;;1.27;;
31638;SDS011;18248;51.522;7.020;2022-09-09T03:06:44;7.95;;;1.50;;
31638;SDS011;18248;51.522;7.020;2022-09-09T03:09:43;4.68;;;1.30;;
31638;SDS011;18248;51.522;7.020;2022-09-09T03:12:42;5.18;;;1.30;;
31638;SDS011;18248;51.522;7.020;2022-09-09T03:15:41;5.18;;;1.33;;
31638;SDS011;18248;51.522;7.020;2022-09-09T03:18:40;4.80;;;1.20;;
31638;SDS011;18248;51.522;7.020;2022-09-09T03:21:38;9.88;;;1.63;;
31638;SDS011;18248;51.522;7.020;2022-09-09T03:24:37;6.00;;;1.40;;
31638;SDS011;18248;51.522;7.020;2022-09-09T03:27:37;3.83;;;1.27;;
31638;SDS011;18248;51.522;7.020;2022-09-09T03:30:37;5.70;;;1.30;;
31638;SDS011;18248;51.522;7.020;2022-09-09T03:33:38;4.47;;;1.35;;
31638;SDS011;18248;51.522;7.020;2022-09-09T03:36:39;4.20;;;1.42;;
31638;SDS011;18248;51.522;7.020;2022-09-09T03:39:39;3.65;;;1.33;;
31638;SDS011;18248;51.522;7.020;2022-09-09T03:42:37;14.32;;;2.30;;
31638;SDS011;18248;51.522;7.020;2022-09-09T03:45:36;3.58;;;1.40;;
31638;SDS011;18248;51.522;7.020;2022-09-09T03:48:35;5.82;;;1.77;;
31638;SDS011;18248;51.522;7.020;2022-09-09T03:51:33;4.75;;;1.40;;
31638;SDS011;18248;51.522;7.020;2022-09-09T03:54:34;5.25;;;1.52;;
31638;SDS011;18248;51.522;7.020;2022-09-09T03:57:33;5.90;;;1.95;;
31638;SDS011;18248;51.522;7.020;2022-09-09T04:00:32;7.18;;;1.73;;
31638;SDS011;18248;51.522;7.020;2022-09-09T04:03:31;4.20;;;1.60;;
31638;SDS011;18248;51.522;7.020;2022-09-09T04:06:30;4.13;;;1.40;;
31638;SDS011;18248;51.522;7.020;2022-09-09T04:09:28;9.30;;;1.55;;
31638;SDS011;18248;51.522;7.020;2022-09-09T04:12:27;11.40;;;2.05;;
31638;SDS011;18248;51.522;7.020;2022-09-09T04:15:27;4.90;;;1.20;;
31638;SDS011;18248;51.522;7.020;2022-09-09T04:18:26;6.15;;;1.20;;
31638;SDS011;18248;51.522;7.020;2022-09-09T04:21:28;3.70;;;1.45;;
31638;SDS011;18248;51.522;7.020;2022-09-09T04:24:26;4.47;;;1.30;;
31638;SDS011;18248;51.522;7.020;2022-09-09T04:27:27;4.95;;;1.33;;
31638;SDS011;18248;51.522;7.020;2022-09-09T04:30:27;6.95;;;1.60;;
31638;SDS011;18248;51.522;7.020;2022-09-09T04:33:25;9.32;;;1.73;;
31638;SDS011;18248;51.522;7.020;2022-09-09T04:36:24;5.32;;;1.58;;
31638;SDS011;18248;51.522;7.020;2022-09-09T04:39:23;8.63;;;2.15;;
31638;SDS011;18248;51.522;7.020;2022-09-09T04:42:21;7.10;;;1.52;;
31638;SDS011;18248;51.522;7.020;2022-09-09T04:45:20;6.40;;;1.67;;
31638;SDS011;18248;51.522;7.020;2022-09-09T04:48:19;5.28;;;1.65;;
31638;SDS011;18248;51.522;7.020;2022-09-09T04:51:19;7.82;;;1.60;;
31638;SDS011;18248;51.522;7.020;2022-09-09T04:54:17;8.20;;;1.60;;
31638;SDS011;18248;51.522;7.020;2022-09-09T04:57:16;4.68;;;1.58;;
31638;SDS011;18248;51.522;7.020;2022-09-09T05:00:14;9.65;;;1.67;;
31638;SDS011;18248;51.522;7.020;2022-09-09T05:03:14;8.60;;;1.63;;
31638;SDS011;18248;51.522;7.020;2022-09-09T05:06:14;6.53;;;1.60;;
31638;SDS011;18248;51.522;7.020;2022-09-09T05:09:14;12.25;;;2.20;;
31638;SDS011;18248;51.522;7.020;2022-09-09T05:12:13;7.63;;;1.60;;
31638;SDS011;18248;51.522;7.020;2022-09-09T05:15:11;6.53;;;1.83;;
31638;SDS011;18248;51.522;7.020;2022-09-09T05:18:11;11.52;;;2.28;;
31638;SDS011;18248;51.522;7.020;2022-09-09T05:21:10;6.70;;;1.60;;
31638;SDS011;18248;51.522;7.020;2022-09-09T05:24:11;7.75;;;1.88;;
31638;SDS011;18248;51.522;7.020;2022-09-09T05:27:09;7.45;;;1.80;;
31638;SDS011;18248;51.522;7.020;2022-09-09T05:30:10;8.55;;;1.70;;
31638;SDS011;18248;51.522;7.020;2022-09-09T05:33:09;8.75;;;1.80;;
31638;SDS011;18248;51.522;7.020;2022-09-09T05:36:12;7.32;;;1.55;;
31638;SDS011;18248;51.522;7.020;2022-09-09T05:39:15;12.52;;;1.83;;
31638;SDS011;18248;51.522;7.020;2022-09-09T05:42:14;14.20;;;3.72;;
31638;SDS011;18248;51.522;7.020;2022-09-09T05:45:13;20.70;;;5.82;;
31638;SDS011;18248;51.522;7.020;2022-09-09T05:48:11;16.10;;;4.30;;
31638;SDS011;18248;51.522;7.020;2022-09-09T05:51:10;14.07;;;4.07;;
31638;SDS011;18248;51.522;7.020;2022-09-09T05:54:13;14.15;;;3.20;;
31638;SDS011;18248;51.522;7.020;2022-09-09T05:57:13;13.13;;;3.20;;
31638;SDS011;18248;51.522;7.020;2022-09-09T06:00:11;13.60;;;2.90;;
31638;SDS011;18248;51.522;7.020;2022-09-09T06:03:11;19.33;;;3.70;;
31638;SDS011;18248;51.522;7.020;2022-09-09T06:06:14;13.68;;;3.28;;
31638;SDS011;18248;51.522;7.020;2022-09-09T06:09:15;14.13;;;2.90;;
31638;SDS011;18248;51.522;7.020;2022-09-09T06:12:14;21.75;;;3.65;;
31638;SDS011;18248;51.522;7.020;2022-09-09T06:15:12;17.10;;;3.42;;
31638;SDS011;18248;51.522;7.020;2022-09-09T06:18:11;13.95;;;2.60;;
31638;SDS011;18248;51.522;7.020;2022-09-09T06:21:13;20.15;;;3.78;;
31638;SDS011;18248;51.522;7.020;2022-09-09T06:24:14;15.07;;;3.20;;
31638;SDS011;18248;51.522;7.020;2022-09-09T06:27:15;12.85;;;2.88;;
31638;SDS011;18248;51.522;7.020;2022-09-09T06:30:13;20.35;;;4.32;;
31638;SDS011;18248;51.522;7.020;2022-09-09T06:33:12;15.70;;;3.55;;
31638;SDS011;18248;51.522;7.020;2022-09-09T06:36:12;15.10;;;3.00;;
31638;SDS011;18248;51.522;7.020;2022-09-09T06:39:12;11.20;;;2.85;;
31638;SDS011;18248;51.522;7.020;2022-09-09T06:42:13;8.82;;;2.50;;
31638;SDS011;18248;51.522;7.020;2022-09-09T06:45:13;10.82;;;2.05;;
31638;SDS011;18248;51.522;7.020;2022-09-09T06:48:12;6.40;;;2.08;;
31638;SDS011;18248;51.522;7.020;2022-09-09T06:51:15;20.77;;;3.00;;
31638;SDS011;18248;51.522;7.020;2022-09-09T06:54:16;12.50;;;2.50;;
31638;SDS011;18248;51.522;7.020;2022-09-09T06:57:16;16.13;;;3.33;;
31638;SDS011;18248;51.522;7.020;2022-09-09T07:00:14;9.50;;;2.17;;
31638;SDS011;18248;51.522;7.020;2022-09-09T07:03:13;14.55;;;2.60;;
31638;SDS011;18248;51.522;7.020;2022-09-09T07:06:20;13.13;;;2.05;;
31638;SDS011;18248;51.522;7.020;2022-09-09T07:09:21;11.57;;;2.38;;
31638;SDS011;18248;51.522;7.020;2022-09-09T07:12:20;8.75;;;2.00;;
31638;SDS011;18248;51.522;7.020;2022-09-09T07:15:18;12.13;;;2.22;;
31638;SDS011;18248;51.522;7.020;2022-09-09T07:18:17;9.65;;;1.95;;
31638;SDS011;18248;51.522;7.020;2022-09-09T07:21:17;8.30;;;2.20;;
31638;SDS011;18248;51.522;7.020;2022-09-09T07:24:16;10.07;;;2.28;;
31638;SDS011;18248;51.522;7.020;2022-09-09T07:27:15;12.73;;;2.35;;
31638;SDS011;18248;51.522;7.020;2022-09-09T07:30:14;10.52;;;1.85;;
31638;SDS011;18248;51.522;7.020;2022-09-09T07:33:12;9.00;;;2.33;;
31638;SDS011;18248;51.522;7.020;2022-09-09T07:36:17;13.80;;;1.67;;
31638;SDS011;18248;51.522;7.020;2022-09-09T07:39:19;7.30;;;1.85;;
31638;SDS011;18248;51.522;7.020;2022-09-09T07:42:18;8.65;;;2.40;;
31638;SDS011;18248;51.522;7.020;2022-09-09T07:45:17;11.75;;;1.95;;
31638;SDS011;18248;51.522;7.020;2022-09-09T07:48:15;7.15;;;1.63;;
31638;SDS011;18248;51.522;7.020;2022-09-09T07:51:15;12.40;;;1.92;;
31638;SDS011;18248;51.522;7.020;2022-09-09T07:54:17;7.90;;;2.00;;
31638;SDS011;18248;51.522;7.020;2022-09-09T07:57:21;7.00;;;1.73;;
31638;SDS011;18248;51.522;7.020;2022-09-09T08:00:20;11.00;;;2.97;;
31638;SDS011;18248;51.522;7.020;2022-09-09T08:03:20;10.25;;;2.22;;
31638;SDS011;18248;51.522;7.020;2022-09-09T08:06:19;7.93;;;1.55;;
31638;SDS011;18248;51.522;7.020;2022-09-09T08:09:18;16.58;;;1.85;;
31638;SDS011;18248;51.522;7.020;2022-09-09T08:12:18;9.98;;;1.95;;
31638;SDS011;18248;51.522;7.020;2022-09-09T08:15:16;10.63;;;1.85;;
31638;SDS011;18248;51.522;7.020;2022-09-09T08:18:16;10.18;;;1.98;;
31638;SDS011;18248;51.522;7.020;2022-09-09T08:21:15;9.02;;;1.65;;
31638;SDS011;18248;51.522;7.020;2022-09-09T08:24:22;7.53;;;1.45;;
31638;SDS011;18248;51.522;7.020;2022-09-09T08:27:21;6.88;;;1.67;;
31638;SDS011;18248;51.522;7.020;2022-09-09T08:30:20;8.13;;;1.77;;
31638;SDS011;18248;51.522;7.020;2022-09-09T08:33:19;9.55;;;1.52;;
31638;SDS011;18248;51.522;7.020;2022-09-09T08:36:20;12.00;;;1.85;;
31638;SDS011;18248;51.522;7.020;2022-09-09T08:39:21;8.68;;;1.65;;
31638;SDS011;18248;51.522;7.020;2022-09-09T08:42:25;9.52;;;2.05;;
31638;SDS011;18248;51.522;7.020;2022-09-09T08:45:56;7.32;;;1.90;;
31638;SDS011;18248;51.522;7.020;2022-09-09T08:49:17;7.22;;;1.23;;
31638;SDS011;18248;51.522;7.020;2022-09-09T08:52:28;7.00;;;1.45;;
31638;SDS011;18248;51.522;7.020;2022-09-09T08:55:39;8.75;;;3.45;;
31638;SDS011;18248;51.522;7.020;2022-09-09T08:58:43;9.77;;;1.65;;
31638;SDS011;18248;51.522;7.020;2022-09-09T09:01:51;6.97;;;1.50;;
31638;SDS011;18248;51.522;7.020;2022-09-09T09:11:22;9.93;;;1.30;;
31638;SDS011;18248;51.522;7.020;2022-09-09T09:14:21;7.05;;;1.30;;
31638;SDS011;18248;51.522;7.020;2022-09-09T09:17:23;11.57;;;1.80;;
31638;SDS011;18248;51.522;7.020;2022-09-09T09:20:33;9.13;;;1.45;;
31638;SDS011;18248;51.522;7.020;2022-09-09T09:23:56;6.07;;;1.30;;
31638;SDS011;18248;51.522;7.020;2022-09-09T09:26:56;5.70;;;1.17;;
31638;SDS011;18248;51.522;7.020;2022-09-09T09:29:56;9.05;;;1.90;;
31638;SDS011;18248;51.522;7.020;2022-09-09T09:36:07;7.05;;;1.60;;
31638;SDS011;18248;51.522;7.020;2022-09-09T09:39:06;6.95;;;1.25;;
31638;SDS011;18248;51.522;7.020;2022-09-09T09:42:11;6.68;;;1.42;;
31638;SDS011;18248;51.522;7.020;2022-09-09T09:45:14;9.40;;;1.38;;
31638;SDS011;18248;51.522;7.020;2022-09-09T09:48:27;7.38;;;1.80;;
31638;SDS011;18248;51.522;7.020;2022-09-09T09:51:26;10.65;;;1.73;;
31638;SDS011;18248;51.522;7.020;2022-09-09T09:54:27;8.85;;;1.27;;
31638;SDS011;18248;51.522;7.020;2022-09-09T09:57:28;6.30;;;1.13;;
31638;SDS011;18248;51.522;7.020;2022-09-09T10:00:29;7.18;;;1.48;;
31638;SDS011;18248;51.522;7.020;2022-09-09T10:03:29;10.32;;;1.50;;
31638;SDS011;18248;51.522;7.020;2022-09-09T10:06:33;9.27;;;1.60;;
31638;SDS011;18248;51.522;7.020;2022-09-09T10:12:41;7.65;;;1.70;;
31638;SDS011;18248;51.522;7.020;2022-09-09T10:19:29;6.75;;;1.45;;
31638;SDS011;18248;51.522;7.020;2022-09-09T10:22:33;11.70;;;1.60;;
31638;SDS011;18248;51.522;7.020;2022-09-09T10:25:35;9.82;;;1.63;;
31638;SDS011;18248;51.522;7.020;2022-09-09T10:35:49;8.85;;;1.65;;
31638;SDS011;18248;51.522;7.020;2022-09-09T10:39:04;4.10;;;1.00;;
31638;SDS011;18248;51.522;7.020;2022-09-09T10:42:14;6.18;;;1.33;;
31638;SDS011;18248;51.522;7.020;2022-09-09T10:55:17;5.28;;;1.15;;
31638;SDS011;18248;51.522;7.020;2022-09-09T10:58:20;8.60;;;1.30;;
31638;SDS011;18248;51.522;7.020;2022-09-09T11:01:25;10.98;;;1.38;;
31638;SDS011;18248;51.522;7.020;2022-09-09T11:04:38;5.25;;;1.35;;
31638;SDS011;18248;51.522;7.020;2022-09-09T11:07:44;9.27;;;1.55;;
31638;SDS011;18248;51.522;7.020;2022-09-09T11:11:04;6.22;;;1.33;;
31638;SDS011;18248;51.522;7.020;2022-09-09T11:14:18;5.88;;;1.10;;
31638;SDS011;18248;51.522;7.020;2022-09-09T11:20:49;4.95;;;1.10;;
31638;SDS011;18248;51.522;7.020;2022-09-09T11:23:54;7.78;;;1.67;;
31638;SDS011;18248;51.522;7.020;2022-09-09T11:26:58;5.07;;;1.13;;
31638;SDS011;18248;51.522;7.020;2022-09-09T11:40:18;7.10;;;1.25;;
31638;SDS011;18248;51.522;7.020;2022-09-09T11:43:29;6.32;;;1.30;;
31638;SDS011;18248;51.522;7.020;2022-09-09T11:46:34;8.30;;;1.10;;
31638;SDS011;18248;51.522;7.020;2022-09-09T11:49:42;4.63;;;1.00;;
31638;SDS011;18248;51.522;7.020;2022-09-09T11:52:44;4.57;;;0.90;;
31638;SDS011;18248;51.522;7.020;2022-09-09T11:55:44;3.75;;;0.95;;
31638;SDS011;18248;51.522;7.020;2022-09-09T11:59:04;9.38;;;1.23;;
31638;SDS011;18248;51.522;7.020;2022-09-09T12:02:10;7.78;;;1.40;;
31638;SDS011;18248;51.522;7.020;2022-09-09T12:05:16;3.28;;;1.00;;
31638;SDS011;18248;51.522;7.020;2022-09-09T12:08:18;5.38;;;1.30;;
31638;SDS011;18248;51.522;7.020;2022-09-09T12:11:28;8.43;;;1.13;;
31638;SDS011;18248;51.522;7.020;2022-09-09T12:17:45;8.30;;;1.38;;
31638;SDS011;18248;51.522;7.020;2022-09-09T12:20:54;4.30;;;1.25;;
31638;SDS011;18248;51.522;7.020;2022-09-09T12:24:13;5.78;;;1.33;;
31638;SDS011;18248;51.522;7.020;2022-09-09T12:27:26;3.47;;;1.17;;
31638;SDS011;18248;51.522;7.020;2022-09-09T12:30:37;4.65;;;1.10;;
31638;SDS011;18248;51.522;7.020;2022-09-09T12:33:46;4.45;;;1.27;;
31638;SDS011;18248;51.522;7.020;2022-09-09T12:36:46;4.60;;;1.25;;
31638;SDS011;18248;51.522;7.020;2022-09-09T12:39:55;4.13;;;0.88;;
31638;SDS011;18248;51.522;7.020;2022-09-09T12:43:02;3.70;;;0.80;;
31638;SDS011;18248;51.522;7.020;2022-09-09T12:46:38;7.70;;;1.30;;
31638;SDS011;18248;51.522;7.020;2022-09-09T12:49:38;3.85;;;1.00;;
31638;SDS011;18248;51.522;7.020;2022-09-09T12:52:39;2.38;;;1.00;;
31638;SDS011;18248;51.522;7.020;2022-09-09T12:55:38;6.68;;;1.30;;
31638;SDS011;18248;51.522;7.020;2022-09-09T12:58:37;4.03;;;0.88;;
31638;SDS011;18248;51.522;7.020;2022-09-09T13:01:38;5.55;;;1.10;;
31638;SDS011;18248;51.522;7.020;2022-09-09T13:04:36;5.85;;;0.93;;
31638;SDS011;18248;51.522;7.020;2022-09-09T13:07:35;5.03;;;1.25;;
31638;SDS011;18248;51.522;7.020;2022-09-09T13:10:35;3.47;;;1.20;;
31638;SDS011;18248;51.522;7.020;2022-09-09T13:13:51;8.10;;;1.40;;
31638;SDS011;18248;51.522;7.020;2022-09-09T13:16:59;8.32;;;1.10;;
31638;SDS011;18248;51.522;7.020;2022-09-09T13:19:59;4.63;;;1.13;;
31638;SDS011;18248;51.522;7.020;2022-09-09T13:22:57;6.30;;;1.67;;
31638;SDS011;18248;51.522;7.020;2022-09-09T13:26:00;6.47;;;1.73;;
31638;SDS011;18248;51.522;7.020;2022-09-09T13:29:07;4.78;;;1.52;;
31638;SDS011;18248;51.522;7.020;2022-09-09T13:32:16;7.40;;;1.42;;
31638;SDS011;18248;51.522;7.020;2022-09-09T13:35:22;5.15;;;1.52;;
31638;SDS011;18248;51.522;7.020;2022-09-09T13:38:22;3.80;;;1.20;;
31638;SDS011;18248;51.522;7.020;2022-09-09T13:41:24;9.88;;;1.98;;
31638;SDS011;18248;51.522;7.020;2022-09-09T13:44:33;4.68;;;1.20;;
31638;SDS011;18248;51.522;7.020;2022-09-09T13:47:39;5.15;;;1.38;;
31638;SDS011;18248;51.522;7.020;2022-09-09T13:50:39;5.50;;;1.63;;
31638;SDS011;18248;51.522;7.020;2022-09-09T13:53:40;6.80;;;1.50;;
31638;SDS011;18248;51.522;7.020;2022-09-09T13:56:39;4.95;;;1.33;;
31638;SDS011;18248;51.522;7.020;2022-09-09T13:59:39;5.68;;;1.40;;
31638;SDS011;18248;51.522;7.020;2022-09-09T14:02:38;2.88;;;1.17;;
31638;SDS011;18248;51.522;7.020;2022-09-09T14:05:37;5.72;;;1.10;;
31638;SDS011;18248;51.522;7.020;2022-09-09T14:08:35;4.82;;;1.20;;
31638;SDS011;18248;51.522;7.020;2022-09-09T14:11:35;4.60;;;1.10;;
31638;SDS011;18248;51.522;7.020;2022-09-09T14:14:33;5.88;;;0.90;;
31638;SDS011;18248;51.522;7.020;2022-09-09T14:17:32;6.25;;;1.27;;
31638;SDS011;18248;51.522;7.020;2022-09-09T14:20:31;5.45;;;1.27;;
31638;SDS011;18248;51.522;7.020;2022-09-09T14:23:30;5.55;;;1.27;;
31638;SDS011;18248;51.522;7.020;2022-09-09T14:26:29;3.45;;;0.77;;
31638;SDS011;18248;51.522;7.020;2022-09-09T14:29:28;6.80;;;1.00;;
31638;SDS011;18248;51.522;7.020;2022-09-09T14:32:27;3.60;;;0.90;;
31638;SDS011;18248;51.522;7.020;2022-09-09T14:35:25;2.13;;;0.80;;
31638;SDS011;18248;51.522;7.020;2022-09-09T14:38:24;4.20;;;1.17;;
31638;SDS011;18248;51.522;7.020;2022-09-09T14:41:23;5.13;;;0.85;;
31638;SDS011;18248;51.522;7.020;2022-09-09T14:44:23;6.38;;;1.25;;
31638;SDS011;18248;51.522;7.020;2022-09-09T14:47:21;7.05;;;1.20;;
31638;SDS011;18248;51.522;7.020;2022-09-09T14:50:20;7.28;;;1.30;;
31638;SDS011;18248;51.522;7.020;2022-09-09T14:53:20;8.52;;;1.63;;
31638;SDS011;18248;51.522;7.020;2022-09-09T14:56:20;6.90;;;1.13;;
31638;SDS011;18248;51.522;7.020;2022-09-09T14:59:22;8.68;;;1.25;;
31638;SDS011;18248;51.522;7.020;2022-09-09T15:02:22;7.93;;;1.60;;
31638;SDS011;18248;51.522;7.020;2022-09-09T15:05:22;9.85;;;1.65;;
31638;SDS011;18248;51.522;7.020;2022-09-09T15:08:22;6.90;;;1.08;;
31638;SDS011;18248;51.522;7.020;2022-09-09T15:11:21;2.92;;;0.50;;
31638;SDS011;18248;51.522;7.020;2022-09-09T15:14:20;2.05;;;0.40;;
31638;SDS011;18248;51.522;7.020;2022-09-09T15:17:19;2.55;;;0.47;;
31638;SDS011;18248;51.522;7.020;2022-09-09T15:20:18;2.90;;;0.82;;
31638;SDS011;18248;51.522;7.020;2022-09-09T15:23:18;2.45;;;0.50;;
31638;SDS011;18248;51.522;7.020;2022-09-09T15:26:16;1.00;;;0.30;;
31638;SDS011;18248;51.522;7.020;2022-09-09T15:29:16;5.05;;;0.68;;
31638;SDS011;18248;51.522;7.020;2022-09-09T15:32:14;2.28;;;0.80;;
31638;SDS011;18248;51.522;7.020;2022-09-09T15:35:13;3.05;;;0.98;;
31638;SDS011;18248;51.522;7.020;2022-09-09T15:38:11;3.17;;;1.02;;
31638;SDS011;18248;51.522;7.020;2022-09-09T15:41:14;3.38;;;1.00;;
31638;SDS011;18248;51.522;7.020;2022-09-09T15:44:14;2.65;;;1.10;;
31638;SDS011;18248;51.522;7.020;2022-09-09T15:47:13;7.05;;;1.10;;
31638;SDS011;18248;51.522;7.020;2022-09-09T15:50:13;7.53;;;1.25;;
31638;SDS011;18248;51.522;7.020;2022-09-09T15:53:11;5.72;;;1.08;;
31638;SDS011;18248;51.522;7.020;2022-09-09T15:56:10;2.25;;;0.88;;
31638;SDS011;18248;51.522;7.020;2022-09-09T15:59:09;5.25;;;1.13;;
31638;SDS011;18248;51.522;7.020;2022-09-09T16:02:08;4.10;;;1.50;;
31638;SDS011;18248;51.522;7.020;2022-09-09T16:05:07;5.80;;;1.83;;
31638;SDS011;18248;51.522;7.020;2022-09-09T16:08:06;2.85;;;1.35;;
31638;SDS011;18248;51.522;7.020;2022-09-09T16:11:05;3.35;;;1.30;;
31638;SDS011;18248;51.522;7.020;2022-09-09T16:14:13;4.50;;;0.82;;
31638;SDS011;18248;51.522;7.020;2022-09-09T16:17:13;3.08;;;0.77;;
31638;SDS011;18248;51.522;7.020;2022-09-09T16:20:13;3.10;;;1.10;;
31638;SDS011;18248;51.522;7.020;2022-09-09T16:23:12;3.60;;;0.98;;
31638;SDS011;18248;51.522;7.020;2022-09-09T16:26:11;1.60;;;0.60;;
31638;SDS011;18248;51.522;7.020;2022-09-09T16:29:14;1.55;;;0.80;;
31638;SDS011;18248;51.522;7.020;2022-09-09T16:32:14;2.63;;;1.08;;
31638;SDS011;18248;51.522;7.020;2022-09-09T16:35:13;5.05;;;1.20;;
31638;SDS011;18248;51.522;7.020;2022-09-09T16:38:11;2.35;;;1.00;;
31638;SDS011;18248;51.522;7.020;2022-09-09T16:41:10;6.38;;;1.45;;
31638;SDS011;18248;51.522;7.020;2022-09-09T16:44:11;8.15;;;0.70;;
31638;SDS011;18248;51.522;7.020;2022-09-09T16:47:11;4.03;;;0.93;;
31638;SDS011;18248;51.522;7.020;2022-09-09T16:50:09;4.40;;;1.05;;
31638;SDS011;18248;51.522;7.020;2022-09-09T16:53:10;1.80;;;0.75;;
31638;SDS011;18248;51.522;7.020;2022-09-09T16:56:14;4.13;;;0.93;;
31638;SDS011;18248;51.522;7.020;2022-09-09T16:59:18;3.03;;;1.13;;
31638;SDS011;18248;51.522;7.020;2022-09-09T17:02:19;2.45;;;0.93;;
31638;SDS011;18248;51.522;7.020;2022-09-09T17:05:18;2.95;;;0.90;;
31638;SDS011;18248;51.522;7.020;2022-09-09T17:08:16;1.73;;;0.70;;
31638;SDS011;18248;51.522;7.020;2022-09-09T17:11:16;3.20;;;0.95;;
31638;SDS011;18248;51.522;7.020;2022-09-09T17:14:16;3.47;;;0.98;;
31638;SDS011;18248;51.522;7.020;2022-09-09T17:17:17;5.47;;;1.15;;
31638;SDS011;18248;51.522;7.020;2022-09-09T17:20:15;4.25;;;1.15;;
31638;SDS011;18248;51.522;7.020;2022-09-09T17:23:14;4.35;;;1.35;;
31638;SDS011;18248;51.522;7.020;2022-09-09T17:26:14;4.38;;;1.20;;
31638;SDS011;18248;51.522;7.020;2022-09-09T17:29:16;6.63;;;1.27;;
31638;SDS011;18248;51.522;7.020;2022-09-09T17:32:16;3.92;;;1.33;;
31638;SDS011;18248;51.522;7.020;2022-09-09T17:35:16;5.85;;;1.23;;
31638;SDS011;18248;51.522;7.020;2022-09-09T17:38:15;4.55;;;1.30;;
31638;SDS011;18248;51.522;7.020;2022-09-09T17:41:18;4.45;;;1.48;;
31638;SDS011;18248;51.522;7.020;2022-09-09T17:44:18;10.30;;;1.30;;
31638;SDS011;18248;51.522;7.020;2022-09-09T17:47:17;4.15;;;1.40;;
31638;SDS011;18248;51.522;7.020;2022-09-09T17:50:15;2.90;;;1.08;;
31638;SDS011;18248;51.522;7.020;2022-09-09T17:53:16;8.30;;;1.70;;
31638;SDS011;18248;51.522;7.020;2022-09-09T17:56:15;4.45;;;2.20;;
31638;SDS011;18248;51.522;7.020;2022-09-09T17:59:16;4.10;;;1.70;;
31638;SDS011;18248;51.522;7.020;2022-09-09T18:02:15;3.30;;;1.30;;
31638;SDS011;18248;51.522;7.020;2022-09-09T18:05:14;9.60;;;1.70;;
31638;SDS011;18248;51.522;7.020;2022-09-09T18:08:13;4.32;;;2.00;;
31638;SDS011;18248;51.522;7.020;2022-09-09T18:11:11;4.05;;;1.40;;
31638;SDS011;18248;51.522;7.020;2022-09-09T18:14:11;6.25;;;1.65;;
31638;SDS011;18248;51.522;7.020;2022-09-09T18:17:17;4.20;;;1.67;;
31638;SDS011;18248;51.522;7.020;2022-09-09T18:20:15;9.88;;;1.88;;
31638;SDS011;18248;51.522;7.020;2022-09-09T18:23:14;5.30;;;1.52;;
31638;SDS011;18248;51.522;7.020;2022-09-09T18:26:13;6.85;;;1.50;;
31638;SDS011;18248;51.522;7.020;2022-09-09T18:29:15;3.80;;;1.27;;
31638;SDS011;18248;51.522;7.020;2022-09-09T18:32:16;5.40;;;1.73;;
31638;SDS011;18248;51.522;7.020;2022-09-09T18:35:17;4.80;;;1.42;;
31638;SDS011;18248;51.522;7.020;2022-09-09T18:38:15;7.63;;;2.35;;
31638;SDS011;18248;51.522;7.020;2022-09-09T18:41:15;5.88;;;1.65;;
31638;SDS011;18248;51.522;7.020;2022-09-09T18:44:20;8.73;;;2.10;;
31638;SDS011;18248;51.522;7.020;2022-09-09T18:47:20;7.60;;;1.95;;
31638;SDS011;18248;51.522;7.020;2022-09-09T18:50:21;6.88;;;2.20;;
31638;SDS011;18248;51.522;7.020;2022-09-09T18:53:20;6.97;;;1.30;;
31638;SDS011;18248;51.522;7.020;2022-09-09T18:56:20;4.65;;;1.55;;
31638;SDS011;18248;51.522;7.020;2022-09-09T18:59:20;7.65;;;1.85;;
31638;SDS011;18248;51.522;7.020;2022-09-09T19:02:20;3.33;;;1.30;;
31638;SDS011;18248;51.522;7.020;2022-09-09T19:05:19;4.10;;;1.58;;
31638;SDS011;18248;51.522;7.020;2022-09-09T19:08:18;7.93;;;1.70;;
31638;SDS011;18248;51.522;7.020;2022-09-09T19:11:19;8.00;;;1.95;;
31638;SDS011;18248;51.522;7.020;2022-09-09T19:14:19;4.80;;;1.60;;
31638;SDS011;18248;51.522;7.020;2022-09-09T19:17:20;5.72;;;1.75;;
31638;SDS011;18248;51.522;7.020;2022-09-09T19:20:20;5.25;;;2.42;;
31638;SDS011;18248;51.522;7.020;2022-09-09T19:23:21;5.30;;;1.88;;
31638;SDS011;18248;51.522;7.020;2022-09-09T19:26:20;9.43;;;1.73;;
31638;SDS011;18248;51.522;7.020;2022-09-09T19:29:21;3.90;;;1.20;;
31638;SDS011;18248;51.522;7.020;2022-09-09T19:32:21;5.00;;;1.20;;